sensor_id;sensor_type;location;lat;lon;timestamp;pressure;altitude;pressure_sealevel;temperature;humidity
78016;BME280;67223;51.102;5.882;2024-01-16T00:01:06;100384.28;;;1.27;100.00
78016;BME280;67223;51.102;5.882;2024-01-16T00:03:32;100370.00;;;1.33;100.00
78016;BME280;67223;51.102;5.882;2024-01-16T00:05:58;100376.09;;;1.33;100.00
78016;BME280;67223;51.102;5.882;2024-01-16T00:08:24;100377.50;;;1.23;100.00
78016;BME280;67223;51.102;5.882;2024-01-16T00:10:50;100369.75;;;1.03;100.00
78016;BME280;67223;51.102;5.882;2024-01-16T00:13:15;100370.22;;;0.94;100.00
78016;BME280;67223;51.102;5.882;2024-01-16T00:15:42;100359.53;;;0.97;100.00
78016;BME280;67223;51.102;5.882;2024-01-16T00:18:08;100367.41;;;0.79;100.00
78016;BME280;67223;51.102;5.882;2024-01-16T00:20:34;100368.66;;;0.90;100.00
78016;BME280;67223;51.102;5.882;2024-01-16T00:22:59;100361.53;;;0.92;100.00
78016;BME280;67223;51.102;5.882;2024-01-16T00:25:25;100365.56;;;0.99;100.00
78016;BME280;67223;51.102;5.882;2024-01-16T00:27:51;100362.22;;;0.95;100.00
78016;BME280;67223;51.102;5.882;2024-01-16T00:30:16;100368.03;;;1.02;100.00
78016;BME280;67223;51.102;5.882;2024-01-16T00:32:42;100366.03;;;0.90;100.00
78016;BME280;67223;51.102;5.882;2024-01-16T00:35:08;100367.56;;;0.94;100.00
78016;BME280;67223;51.102;5.882;2024-01-16T00:37:35;100363.09;;;0.96;100.00
78016;BME280;67223;51.102;5.882;2024-01-16T00:40:00;100362.03;;;1.34;100.00
78016;BME280;67223;51.102;5.882;2024-01-16T00:42:26;100365.56;;;0.99;100.00
78016;BME280;67223;51.102;5.882;2024-01-16T00:44:52;100363.63;;;1.02;100.00
78016;BME280;67223;51.102;5.882;2024-01-16T00:47:17;100369.13;;;0.98;100.00
78016;BME280;67223;51.102;5.882;2024-01-16T00:49:43;100373.56;;;1.14;100.00
78016;BME280;67223;51.102;5.882;2024-01-16T00:52:09;100384.28;;;0.93;100.00
78016;BME280;67223;51.102;5.882;2024-01-16T00:54:35;100378.09;;;0.94;100.00
78016;BME280;67223;51.102;5.882;2024-01-16T00:57:00;100373.06;;;0.89;100.00
78016;BME280;67223;51.102;5.882;2024-01-16T00:59:26;100379.56;;;1.16;100.00
78016;BME280;67223;51.102;5.882;2024-01-16T01:01:51;100378.94;;;1.11;100.00
78016;BME280;67223;51.102;5.882;2024-01-16T01:04:17;100388.63;;;1.11;100.00
78016;BME280;67223;51.102;5.882;2024-01-16T01:06:42;100391.25;;;1.11;100.00
78016;BME280;67223;51.102;5.882;2024-01-16T01:09:08;100387.22;;;1.04;100.00
78016;BME280;67223;51.102;5.882;2024-01-16T01:11:37;100401.06;;;1.07;100.00
78016;BME280;67223;51.102;5.882;2024-01-16T01:14:03;100401.44;;;1.00;100.00
78016;BME280;67223;51.102;5.882;2024-01-16T01:16:28;100404.69;;;1.05;100.00
78016;BME280;67223;51.102;5.882;2024-01-16T01:18:54;100402.25;;;1.19;100.00
78016;BME280;67223;51.102;5.882;2024-01-16T01:21:19;100399.28;;;1.08;100.00
78016;BME280;67223;51.102;5.882;2024-01-16T01:23:45;100406.25;;;1.09;100.00
78016;BME280;67223;51.102;5.882;2024-01-16T01:26:10;100405.41;;;1.43;100.00
78016;BME280;67223;51.102;5.882;2024-01-16T01:28:39;100410.09;;;1.02;100.00
78016;BME280;67223;51.102;5.882;2024-01-16T01:31:06;100407.13;;;1.09;100.00
78016;BME280;67223;51.102;5.882;2024-01-16T01:33:33;100412.16;;;1.14;100.00
78016;BME280;67223;51.102;5.882;2024-01-16T01:35:58;100420.47;;;1.05;100.00
78016;BME280;67223;51.102;5.882;2024-01-16T01:38:24;100427.88;;;0.97;100.00
78016;BME280;67223;51.102;5.882;2024-01-16T01:40:49;100407.41;;;1.55;100.00
78016;BME280;67223;51.102;5.882;2024-01-16T01:43:19;100422.97;;;1.08;100.00
78016;BME280;67223;51.102;5.882;2024-01-16T01:48:29;100431.94;;;1.04;100.00
78016;BME280;67223;51.102;5.882;2024-01-16T01:50:57;100435.09;;;1.10;100.00
78016;BME280;67223;51.102;5.882;2024-01-16T01:53:23;100432.06;;;1.01;100.00
78016;BME280;67223;51.102;5.882;2024-01-16T01:55:49;100441.88;;;0.97;100.00
78016;BME280;67223;51.102;5.882;2024-01-16T01:58:15;100435.69;;;0.98;100.00
78016;BME280;67223;51.102;5.882;2024-01-16T02:00:40;100438.22;;;1.00;100.00
78016;BME280;67223;51.102;5.882;2024-01-16T02:03:06;100451.59;;;0.95;100.00
78016;BME280;67223;51.102;5.882;2024-01-16T02:05:32;100449.06;;;0.94;100.00
78016;BME280;67223;51.102;5.882;2024-01-16T02:07:58;100442.81;;;0.96;100.00
78016;BME280;67223;51.102;5.882;2024-01-16T02:10:24;100444.91;;;1.07;100.00
78016;BME280;67223;51.102;5.882;2024-01-16T02:12:49;100448.63;;;1.03;100.00
78016;BME280;67223;51.102;5.882;2024-01-16T02:15:15;100446.91;;;1.02;100.00
78016;BME280;67223;51.102;5.882;2024-01-16T02:17:40;100444.44;;;0.99;100.00
78016;BME280;67223;51.102;5.882;2024-01-16T02:20:06;100446.47;;;1.11;100.00
78016;BME280;67223;51.102;5.882;2024-01-16T02:22:33;100453.19;;;0.99;100.00
78016;BME280;67223;51.102;5.882;2024-01-16T02:24:59;100452.63;;;0.93;100.00
78016;BME280;67223;51.102;5.882;2024-01-16T02:27:25;100452.16;;;0.84;100.00
78016;BME280;67223;51.102;5.882;2024-01-16T02:29:50;100455.91;;;0.79;100.00
78016;BME280;67223;51.102;5.882;2024-01-16T02:32:16;100454.31;;;0.75;100.00
78016;BME280;67223;51.102;5.882;2024-01-16T02:34:41;100451.19;;;0.85;100.00
78016;BME280;67223;51.102;5.882;2024-01-16T02:37:07;100444.66;;;0.75;100.00
78016;BME280;67223;51.102;5.882;2024-01-16T02:39:32;100447.28;;;0.75;100.00
78016;BME280;67223;51.102;5.882;2024-01-16T02:41:58;100451.84;;;0.72;100.00
78016;BME280;67223;51.102;5.882;2024-01-16T02:44:26;100441.97;;;0.77;100.00
78016;BME280;67223;51.102;5.882;2024-01-16T02:46:51;100443.13;;;0.71;100.00
78016;BME280;67223;51.102;5.882;2024-01-16T02:49:17;100435.75;;;0.79;100.00
78016;BME280;67223;51.102;5.882;2024-01-16T02:51:42;100440.22;;;0.77;100.00
78016;BME280;67223;51.102;5.882;2024-01-16T02:54:08;100428.69;;;0.80;100.00
78016;BME280;67223;51.102;5.882;2024-01-16T02:56:34;100427.75;;;0.81;100.00
78016;BME280;67223;51.102;5.882;2024-01-16T02:59:00;100438.88;;;0.69;100.00
78016;BME280;67223;51.102;5.882;2024-01-16T03:04:00;100428.78;;;0.78;100.00
78016;BME280;67223;51.102;5.882;2024-01-16T03:06:26;100420.91;;;0.78;100.00
78016;BME280;67223;51.102;5.882;2024-01-16T03:08:53;100422.66;;;0.78;100.00
78016;BME280;67223;51.102;5.882;2024-01-16T03:11:18;100418.38;;;0.75;100.00
78016;BME280;67223;51.102;5.882;2024-01-16T03:13:44;100414.00;;;0.76;100.00
78016;BME280;67223;51.102;5.882;2024-01-16T03:16:10;100407.59;;;0.81;100.00
78016;BME280;67223;51.102;5.882;2024-01-16T03:18:37;100423.66;;;0.75;100.00
78016;BME280;67223;51.102;5.882;2024-01-16T03:21:10;100420.09;;;0.76;100.00
78016;BME280;67223;51.102;5.882;2024-01-16T03:23:35;100416.72;;;0.74;100.00
78016;BME280;67223;51.102;5.882;2024-01-16T03:26:01;100408.72;;;0.76;100.00
78016;BME280;67223;51.102;5.882;2024-01-16T03:28:26;100417.47;;;0.76;100.00
78016;BME280;67223;51.102;5.882;2024-01-16T03:30:52;100407.88;;;0.75;100.00
78016;BME280;67223;51.102;5.882;2024-01-16T03:33:17;100406.09;;;0.76;100.00
78016;BME280;67223;51.102;5.882;2024-01-16T03:35:42;100399.13;;;0.75;100.00
78016;BME280;67223;51.102;5.882;2024-01-16T03:38:08;100412.50;;;0.70;100.00
78016;BME280;67223;51.102;5.882;2024-01-16T03:40:34;100403.06;;;0.66;100.00
78016;BME280;67223;51.102;5.882;2024-01-16T03:43:02;100402.38;;;0.63;100.00
78016;BME280;67223;51.102;5.882;2024-01-16T03:45:30;100402.03;;;0.52;100.00
78016;BME280;67223;51.102;5.882;2024-01-16T03:47:56;100396.69;;;0.53;100.00
78016;BME280;67223;51.102;5.882;2024-01-16T03:50:21;100403.16;;;0.46;100.00
78016;BME280;67223;51.102;5.882;2024-01-16T03:52:46;100401.16;;;0.51;100.00
78016;BME280;67223;51.102;5.882;2024-01-16T03:55:12;100403.09;;;0.48;100.00
78016;BME280;67223;51.102;5.882;2024-01-16T03:57:40;100403.75;;;0.34;100.00
78016;BME280;67223;51.102;5.882;2024-01-16T04:00:13;100393.94;;;0.37;100.00
78016;BME280;67223;51.102;5.882;2024-01-16T04:02:39;100404.94;;;0.27;100.00
78016;BME280;67223;51.102;5.882;2024-01-16T04:05:04;100394.09;;;0.34;100.00
78016;BME280;67223;51.102;5.882;2024-01-16T04:07:31;100400.59;;;0.26;100.00
78016;BME280;67223;51.102;5.882;2024-01-16T04:09:56;100411.19;;;0.24;100.00
78016;BME280;67223;51.102;5.882;2024-01-16T04:12:21;100406.59;;;0.29;100.00
78016;BME280;67223;51.102;5.882;2024-01-16T04:14:47;100403.31;;;0.24;100.00
78016;BME280;67223;51.102;5.882;2024-01-16T04:17:12;100405.84;;;0.26;100.00
78016;BME280;67223;51.102;5.882;2024-01-16T04:19:38;100408.63;;;0.23;100.00
78016;BME280;67223;51.102;5.882;2024-01-16T04:22:04;100412.59;;;0.13;100.00
78016;BME280;67223;51.102;5.882;2024-01-16T04:24:30;100410.00;;;-0.08;100.00
78016;BME280;67223;51.102;5.882;2024-01-16T04:26:56;100416.97;;;-0.07;100.00
78016;BME280;67223;51.102;5.882;2024-01-16T04:29:21;100411.66;;;-0.05;100.00
78016;BME280;67223;51.102;5.882;2024-01-16T04:31:47;100421.38;;;-0.27;100.00
78016;BME280;67223;51.102;5.882;2024-01-16T04:34:13;100405.81;;;-0.12;100.00
78016;BME280;67223;51.102;5.882;2024-01-16T04:36:38;100415.97;;;-0.04;100.00
78016;BME280;67223;51.102;5.882;2024-01-16T04:39:03;100418.63;;;-0.24;100.00
78016;BME280;67223;51.102;5.882;2024-01-16T04:41:29;100414.28;;;-0.05;100.00
78016;BME280;67223;51.102;5.882;2024-01-16T04:43:54;100418.38;;;0.00;100.00
78016;BME280;67223;51.102;5.882;2024-01-16T04:46:20;100422.50;;;-0.33;100.00
78016;BME280;67223;51.102;5.882;2024-01-16T04:48:45;100421.19;;;-0.23;100.00
78016;BME280;67223;51.102;5.882;2024-01-16T04:51:11;100423.81;;;-0.23;100.00
78016;BME280;67223;51.102;5.882;2024-01-16T04:53:36;100421.38;;;-0.27;100.00
78016;BME280;67223;51.102;5.882;2024-01-16T04:56:02;100427.28;;;-0.22;100.00
78016;BME280;67223;51.102;5.882;2024-01-16T04:58:27;100424.03;;;-0.09;100.00
78016;BME280;67223;51.102;5.882;2024-01-16T05:00:53;100431.94;;;-0.29;100.00
78016;BME280;67223;51.102;5.882;2024-01-16T05:03:18;100433.44;;;-0.23;100.00
78016;BME280;67223;51.102;5.882;2024-01-16T05:05:44;100433.66;;;-0.28;100.00
78016;BME280;67223;51.102;5.882;2024-01-16T05:08:09;100426.97;;;-0.35;100.00
78016;BME280;67223;51.102;5.882;2024-01-16T05:10:35;100424.81;;;-0.25;100.00
78016;BME280;67223;51.102;5.882;2024-01-16T05:13:01;100427.94;;;-0.37;100.00
78016;BME280;67223;51.102;5.882;2024-01-16T05:15:26;100424.59;;;-0.21;100.00
78016;BME280;67223;51.102;5.882;2024-01-16T05:17:52;100430.56;;;-0.37;100.00
78016;BME280;67223;51.102;5.882;2024-01-16T05:20:18;100427.28;;;-0.22;100.00
78016;BME280;67223;51.102;5.882;2024-01-16T05:22:44;100421.84;;;-0.38;100.00
78016;BME280;67223;51.102;5.882;2024-01-16T05:25:09;100424.00;;;-0.48;100.00
78016;BME280;67223;51.102;5.882;2024-01-16T05:27:35;100418.72;;;-0.46;100.00
78016;BME280;67223;51.102;5.882;2024-01-16T05:30:00;100429.25;;;-0.48;100.00
78016;BME280;67223;51.102;5.882;2024-01-16T05:32:26;100428.09;;;-0.40;100.00
78016;BME280;67223;51.102;5.882;2024-01-16T05:34:52;100430.97;;;-0.26;100.00
78016;BME280;67223;51.102;5.882;2024-01-16T05:37:18;100437.28;;;-0.30;100.00
78016;BME280;67223;51.102;5.882;2024-01-16T05:39:44;100424.28;;;-0.33;100.00
78016;BME280;67223;51.102;5.882;2024-01-16T05:42:09;100421.72;;;-0.35;100.00
78016;BME280;67223;51.102;5.882;2024-01-16T05:44:37;100412.81;;;-0.31;100.00
78016;BME280;67223;51.102;5.882;2024-01-16T05:47:03;100395.72;;;-0.01;100.00
78016;BME280;67223;51.102;5.882;2024-01-16T05:49:29;100411.56;;;-0.43;100.00
78016;BME280;67223;51.102;5.882;2024-01-16T05:51:54;100416.75;;;-0.61;100.00
78016;BME280;67223;51.102;5.882;2024-01-16T05:54:20;100418.31;;;-0.57;100.00
78016;BME280;67223;51.102;5.882;2024-01-16T05:56:45;100429.50;;;-0.74;100.00
78016;BME280;67223;51.102;5.882;2024-01-16T05:59:11;100403.88;;;0.31;100.00
78016;BME280;67223;51.102;5.882;2024-01-16T06:01:36;100350.69;;;2.62;100.00
78016;BME280;67223;51.102;5.882;2024-01-16T06:04:03;100349.50;;;3.71;100.00
78016;BME280;67223;51.102;5.882;2024-01-16T06:06:28;100397.59;;;2.40;100.00
78016;BME280;67223;51.102;5.882;2024-01-16T06:08:55;100358.25;;;4.00;100.00
78016;BME280;67223;51.102;5.882;2024-01-16T06:11:30;100344.53;;;4.77;100.00
78016;BME280;67223;51.102;5.882;2024-01-16T06:13:56;100376.53;;;4.46;100.00
78016;BME280;67223;51.102;5.882;2024-01-16T06:16:22;100350.13;;;5.89;100.00
78016;BME280;67223;51.102;5.882;2024-01-16T06:18:47;100401.28;;;5.12;100.00
78016;BME280;67223;51.102;5.882;2024-01-16T06:21:13;100397.38;;;5.70;100.00
78016;BME280;67223;51.102;5.882;2024-01-16T06:23:38;100392.81;;;6.23;100.00
78016;BME280;67223;51.102;5.882;2024-01-16T06:26:04;100479.00;;;4.28;100.00
78016;BME280;67223;51.102;5.882;2024-01-16T06:28:29;100485.81;;;3.28;100.00
78016;BME280;67223;51.102;5.882;2024-01-16T06:30:54;100524.84;;;1.92;100.00
78016;BME280;67223;51.102;5.882;2024-01-16T06:33:20;100500.03;;;2.79;100.00
78016;BME280;67223;51.102;5.882;2024-01-16T06:35:45;100529.53;;;2.20;100.00
78016;BME280;67223;51.102;5.882;2024-01-16T06:38:11;100500.28;;;3.06;100.00
78016;BME280;67223;51.102;5.882;2024-01-16T06:40:36;100511.69;;;3.06;100.00
78016;BME280;67223;51.102;5.882;2024-01-16T06:43:02;100512.97;;;3.60;100.00
78016;BME280;67223;51.102;5.882;2024-01-16T06:45:28;100529.88;;;2.64;100.00
78016;BME280;67223;51.102;5.882;2024-01-16T06:47:53;100524.69;;;2.78;100.00
78016;BME280;67223;51.102;5.882;2024-01-16T06:50:19;100499.22;;;3.99;100.00
78016;BME280;67223;51.102;5.882;2024-01-16T06:52:44;100518.78;;;4.11;100.00
78016;BME280;67223;51.102;5.882;2024-01-16T06:55:10;100478.06;;;5.52;100.00
78016;BME280;67223;51.102;5.882;2024-01-16T06:57:36;100552.22;;;4.26;100.00
78016;BME280;67223;51.102;5.882;2024-01-16T07:00:01;100518.47;;;5.68;100.00
78016;BME280;67223;51.102;5.882;2024-01-16T07:02:27;100558.78;;;4.91;100.00
78016;BME280;67223;51.102;5.882;2024-01-16T07:04:52;100571.66;;;5.24;100.00
78016;BME280;67223;51.102;5.882;2024-01-16T07:07:17;100557.56;;;6.56;100.00
78016;BME280;67223;51.102;5.882;2024-01-16T07:09:45;100572.59;;;7.06;100.00
78016;BME280;67223;51.102;5.882;2024-01-16T07:12:10;100593.88;;;6.81;100.00
78016;BME280;67223;51.102;5.882;2024-01-16T07:14:36;100606.50;;;6.77;100.00
78016;BME280;67223;51.102;5.882;2024-01-16T07:17:03;100618.88;;;5.99;100.00
78016;BME280;67223;51.102;5.882;2024-01-16T07:19:28;100624.13;;;5.46;100.00
78016;BME280;67223;51.102;5.882;2024-01-16T07:21:54;100677.19;;;3.98;100.00
78016;BME280;67223;51.102;5.882;2024-01-16T07:24:22;100638.44;;;5.70;100.00
78016;BME280;67223;51.102;5.882;2024-01-16T07:26:48;100648.56;;;5.78;100.00
78016;BME280;67223;51.102;5.882;2024-01-16T07:29:13;100625.50;;;6.97;100.00
78016;BME280;67223;51.102;5.882;2024-01-16T07:31:39;100679.78;;;5.87;100.00
78016;BME280;67223;51.102;5.882;2024-01-16T07:34:04;100658.66;;;6.39;100.00
78016;BME280;67223;51.102;5.882;2024-01-16T07:36:30;100657.88;;;7.02;100.00
78016;BME280;67223;51.102;5.882;2024-01-16T07:38:55;100674.44;;;7.18;100.00
78016;BME280;67223;51.102;5.882;2024-01-16T07:41:21;100671.09;;;7.89;100.00
78016;BME280;67223;51.102;5.882;2024-01-16T07:43:46;100707.44;;;6.88;100.00
78016;BME280;67223;51.102;5.882;2024-01-16T07:46:12;100710.09;;;6.10;100.00
78016;BME280;67223;51.102;5.882;2024-01-16T07:48:37;100718.41;;;5.62;100.00
78016;BME280;67223;51.102;5.882;2024-01-16T07:51:03;100709.59;;;5.34;100.00
78016;BME280;67223;51.102;5.882;2024-01-16T07:53:28;100705.56;;;4.40;100.00
78016;BME280;67223;51.102;5.882;2024-01-16T07:55:54;100691.94;;;4.92;100.00
78016;BME280;67223;51.102;5.882;2024-01-16T07:58:20;100723.91;;;2.83;100.00
78016;BME280;67223;51.102;5.882;2024-01-16T08:00:45;100701.97;;;2.83;100.00
78016;BME280;67223;51.102;5.882;2024-01-16T08:03:11;100665.69;;;4.59;100.00
78016;BME280;67223;51.102;5.882;2024-01-16T08:05:37;100649.81;;;5.72;100.00
78016;BME280;67223;51.102;5.882;2024-01-16T08:08:04;100697.97;;;5.50;100.00
78016;BME280;67223;51.102;5.882;2024-01-16T08:10:30;100674.88;;;7.37;100.00
78016;BME280;67223;51.102;5.882;2024-01-16T08:12:56;100735.78;;;5.81;100.00
78016;BME280;67223;51.102;5.882;2024-01-16T08:15:21;100695.47;;;7.83;100.00
78016;BME280;67223;51.102;5.882;2024-01-16T08:17:47;100726.16;;;6.87;100.00
78016;BME280;67223;51.102;5.882;2024-01-16T08:20:13;100710.53;;;7.58;100.00
78016;BME280;67223;51.102;5.882;2024-01-16T08:22:39;100729.25;;;7.93;100.00
78016;BME280;67223;51.102;5.882;2024-01-16T08:25:04;100756.06;;;5.96;100.00
78016;BME280;67223;51.102;5.882;2024-01-16T08:27:31;100763.22;;;6.08;100.00
78016;BME280;67223;51.102;5.882;2024-01-16T08:29:56;100724.47;;;6.99;100.00
78016;BME280;67223;51.102;5.882;2024-01-16T08:32:22;100752.94;;;5.61;100.00
78016;BME280;67223;51.102;5.882;2024-01-16T08:34:47;100744.50;;;4.22;100.00
78016;BME280;67223;51.102;5.882;2024-01-16T08:37:13;100739.97;;;2.62;100.00
78016;BME280;67223;51.102;5.882;2024-01-16T08:39:38;100707.34;;;5.13;100.00
78016;BME280;67223;51.102;5.882;2024-01-16T08:42:04;100716.91;;;5.16;100.00
78016;BME280;67223;51.102;5.882;2024-01-16T08:44:30;100706.00;;;5.77;100.00
78016;BME280;67223;51.102;5.882;2024-01-16T08:46:55;100757.53;;;3.63;100.00
78016;BME280;67223;51.102;5.882;2024-01-16T08:49:20;100743.97;;;4.00;100.00
78016;BME280;67223;51.102;5.882;2024-01-16T08:51:46;100739.06;;;3.45;100.00
78016;BME280;67223;51.102;5.882;2024-01-16T08:54:12;100712.44;;;5.59;100.00
78016;BME280;67223;51.102;5.882;2024-01-16T08:56:37;100730.16;;;5.87;100.00
78016;BME280;67223;51.102;5.882;2024-01-16T08:59:02;100715.75;;;7.96;100.00
78016;BME280;67223;51.102;5.882;2024-01-16T09:01:28;100730.63;;;8.94;100.00
78016;BME280;67223;51.102;5.882;2024-01-16T09:03:53;100784.66;;;6.85;100.00
78016;BME280;67223;51.102;5.882;2024-01-16T09:06:19;100757.09;;;6.34;100.00
78016;BME280;67223;51.102;5.882;2024-01-16T09:08:45;100735.75;;;8.02;100.00
78016;BME280;67223;51.102;5.882;2024-01-16T09:11:11;100759.06;;;7.86;100.00
78016;BME280;67223;51.102;5.882;2024-01-16T09:13:37;100792.09;;;5.98;100.00
78016;BME280;67223;51.102;5.882;2024-01-16T09:16:03;100763.66;;;7.58;100.00
78016;BME280;67223;51.102;5.882;2024-01-16T09:18:29;100789.25;;;5.59;100.00
78016;BME280;67223;51.102;5.882;2024-01-16T09:20:55;100779.53;;;4.26;100.00
78016;BME280;67223;51.102;5.882;2024-01-16T09:23:20;100754.47;;;5.37;100.00
78016;BME280;67223;51.102;5.882;2024-01-16T09:25:46;100768.97;;;4.71;100.00
78016;BME280;67223;51.102;5.882;2024-01-16T09:28:11;100772.13;;;4.32;100.00
78016;BME280;67223;51.102;5.882;2024-01-16T09:30:37;100745.75;;;5.77;100.00
78016;BME280;67223;51.102;5.882;2024-01-16T09:33:03;100773.94;;;5.50;100.00
78016;BME280;67223;51.102;5.882;2024-01-16T09:35:32;100739.03;;;6.27;100.00
78016;BME280;67223;51.102;5.882;2024-01-16T09:37:57;100747.81;;;5.15;100.00
78016;BME280;67223;51.102;5.882;2024-01-16T09:40:25;100734.69;;;4.84;100.00
78016;BME280;67223;51.102;5.882;2024-01-16T09:42:50;100701.25;;;6.63;100.00
78016;BME280;67223;51.102;5.882;2024-01-16T09:45:20;100734.34;;;4.90;100.00
78016;BME280;67223;51.102;5.882;2024-01-16T09:47:51;100722.16;;;6.01;100.00
78016;BME280;67223;51.102;5.882;2024-01-16T09:50:18;100744.91;;;4.30;100.00
78016;BME280;67223;51.102;5.882;2024-01-16T09:52:47;100734.69;;;4.54;100.00
78016;BME280;67223;51.102;5.882;2024-01-16T09:55:14;100744.38;;;4.40;100.00
78016;BME280;67223;51.102;5.882;2024-01-16T09:57:40;100709.16;;;7.40;100.00
78016;BME280;67223;51.102;5.882;2024-01-16T10:00:10;100743.97;;;4.77;100.00
78016;BME280;67223;51.102;5.882;2024-01-16T10:02:39;100726.50;;;5.74;100.00
78016;BME280;67223;51.102;5.882;2024-01-16T10:05:09;100702.03;;;6.90;100.00
78016;BME280;67223;51.102;5.882;2024-01-16T10:07:39;100714.69;;;7.50;100.00
78016;BME280;67223;51.102;5.882;2024-01-16T10:10:05;100744.50;;;5.83;100.00
78016;BME280;67223;51.102;5.882;2024-01-16T10:12:32;100726.06;;;7.14;100.00
78016;BME280;67223;51.102;5.882;2024-01-16T10:14:58;100740.41;;;6.05;100.00
78016;BME280;67223;51.102;5.882;2024-01-16T10:17:38;100736.25;;;6.42;100.00
78016;BME280;67223;51.102;5.882;2024-01-16T10:20:05;100727.66;;;6.52;100.00
78016;BME280;67223;51.102;5.882;2024-01-16T10:22:31;100723.06;;;6.80;100.00
78016;BME280;67223;51.102;5.882;2024-01-16T10:25:10;100739.59;;;6.71;100.00
78016;BME280;67223;51.102;5.882;2024-01-16T10:27:39;100728.72;;;8.01;100.00
78016;BME280;67223;51.102;5.882;2024-01-16T10:30:06;100725.72;;;8.77;100.00
78016;BME280;67223;51.102;5.882;2024-01-16T10:32:37;100747.97;;;8.41;100.00
78016;BME280;67223;51.102;5.882;2024-01-16T10:35:06;100761.50;;;8.25;100.00
78016;BME280;67223;51.102;5.882;2024-01-16T10:37:52;100760.66;;;7.88;100.00
78016;BME280;67223;51.102;5.882;2024-01-16T10:40:21;100757.34;;;9.16;100.00
78016;BME280;67223;51.102;5.882;2024-01-16T10:43:04;100771.41;;;8.23;100.00
78016;BME280;67223;51.102;5.882;2024-01-16T10:45:31;100772.19;;;8.73;100.00
78016;BME280;67223;51.102;5.882;2024-01-16T10:48:07;100772.50;;;8.92;100.00
78016;BME280;67223;51.102;5.882;2024-01-16T10:50:34;100771.34;;;9.75;100.00
78016;BME280;67223;51.102;5.882;2024-01-16T10:53:03;100768.50;;;9.21;100.00
78016;BME280;67223;51.102;5.882;2024-01-16T10:55:29;100772.09;;;9.09;100.00
78016;BME280;67223;51.102;5.882;2024-01-16T10:57:58;100775.69;;;9.76;100.00
78016;BME280;67223;51.102;5.882;2024-01-16T11:00:26;100772.06;;;10.65;100.00
78016;BME280;67223;51.102;5.882;2024-01-16T11:05:27;100779.56;;;10.06;100.00
78016;BME280;67223;51.102;5.882;2024-01-16T11:07:55;100779.09;;;10.23;100.00
78016;BME280;67223;51.102;5.882;2024-01-16T11:10:24;100775.44;;;10.67;100.00
78016;BME280;67223;51.102;5.882;2024-01-16T11:12:51;100776.75;;;11.04;100.00
78016;BME280;67223;51.102;5.882;2024-01-16T11:15:18;100773.09;;;11.26;100.00
78016;BME280;67223;51.102;5.882;2024-01-16T11:17:44;100778.50;;;11.36;100.00
78016;BME280;67223;51.102;5.882;2024-01-16T11:20:11;100794.41;;;11.16;100.00
78016;BME280;67223;51.102;5.882;2024-01-16T11:22:41;100782.03;;;11.36;100.00
78016;BME280;67223;51.102;5.882;2024-01-16T11:25:11;100783.47;;;11.71;100.00
78016;BME280;67223;51.102;5.882;2024-01-16T11:27:38;100775.25;;;12.14;100.00
78016;BME280;67223;51.102;5.882;2024-01-16T11:30:08;100779.06;;;11.30;98.10
78016;BME280;67223;51.102;5.882;2024-01-16T11:32:39;100772.84;;;11.50;99.02
78016;BME280;67223;51.102;5.882;2024-01-16T11:35:09;100771.25;;;11.68;96.31
78016;BME280;67223;51.102;5.882;2024-01-16T11:37:39;100770.22;;;12.20;100.00
78016;BME280;67223;51.102;5.882;2024-01-16T11:42:51;100761.69;;;12.65;100.00
78016;BME280;67223;51.102;5.882;2024-01-16T11:50:34;100751.28;;;13.19;96.62
78016;BME280;67223;51.102;5.882;2024-01-16T11:52:59;100746.97;;;13.36;88.85
78016;BME280;67223;51.102;5.882;2024-01-16T12:00:53;100762.81;;;13.29;87.82
78016;BME280;67223;51.102;5.882;2024-01-16T12:03:22;100761.56;;;13.24;86.25
78016;BME280;67223;51.102;5.882;2024-01-16T12:06:00;100760.44;;;12.88;87.06
78016;BME280;67223;51.102;5.882;2024-01-16T12:08:27;100747.84;;;13.08;88.00
78016;BME280;67223;51.102;5.882;2024-01-16T12:10:53;100738.00;;;12.99;81.71
78016;BME280;67223;51.102;5.882;2024-01-16T12:13:19;100738.41;;;13.23;92.25
78016;BME280;67223;51.102;5.882;2024-01-16T12:15:44;100739.53;;;12.63;77.90
78016;BME280;67223;51.102;5.882;2024-01-16T12:18:18;100725.16;;;12.44;90.29
78016;BME280;67223;51.102;5.882;2024-01-16T12:20:43;100728.75;;;12.05;84.37
78016;BME280;67223;51.102;5.882;2024-01-16T12:23:09;100723.03;;;12.38;95.46
78016;BME280;67223;51.102;5.882;2024-01-16T12:25:36;100715.31;;;12.45;97.62
78016;BME280;67223;51.102;5.882;2024-01-16T12:28:05;100713.59;;;12.34;93.66
78016;BME280;67223;51.102;5.882;2024-01-16T12:30:32;100709.50;;;11.81;90.43
78016;BME280;67223;51.102;5.882;2024-01-16T12:33:09;100701.13;;;11.95;95.21
78016;BME280;67223;51.102;5.882;2024-01-16T12:35:42;100697.84;;;11.91;98.97
78016;BME280;67223;51.102;5.882;2024-01-16T12:38:09;100687.38;;;12.28;99.29
78016;BME280;67223;51.102;5.882;2024-01-16T12:40:51;100685.50;;;11.70;96.16
78016;BME280;67223;51.102;5.882;2024-01-16T12:43:17;100679.44;;;12.07;99.05
78016;BME280;67223;51.102;5.882;2024-01-16T12:45:44;100690.66;;;10.80;87.33
78016;BME280;67223;51.102;5.882;2024-01-16T12:48:10;100683.72;;;10.57;100.00
78016;BME280;67223;51.102;5.882;2024-01-16T12:50:36;100684.75;;;10.45;98.86
78016;BME280;67223;51.102;5.882;2024-01-16T12:53:06;100679.03;;;11.11;100.00
78016;BME280;67223;51.102;5.882;2024-01-16T12:55:34;100677.03;;;11.04;100.00
78016;BME280;67223;51.102;5.882;2024-01-16T12:58:20;100677.72;;;11.27;100.00
78016;BME280;67223;51.102;5.882;2024-01-16T13:00:47;100676.47;;;12.01;99.60
78016;BME280;67223;51.102;5.882;2024-01-16T13:03:20;100685.69;;;12.46;99.67
78016;BME280;67223;51.102;5.882;2024-01-16T13:05:54;100690.88;;;11.70;87.98